Terminal Aerodrome Forecast
Issued by NWS Burlington, VT

Home | Current Version | Previous Version | Text Only | Print | Product List | Glossary On
Versions: 1 2 3 4 5 6 7 8 9 10 11 12
000
FTUS41 KBTV 211739
TAFBTV
TAF
KBTV 211739Z 2118/2218 27007KT P6SM SCT050 SCT120
     FM220000 28004KT P6SM SCT200
     FM221100 35005KT P6SM SCT100=

USA.gov is the U.S. government's official web portal to all federal, state and local government web resources and services.